SAS62N ENTC-ENSB
Flight info
| Callsign | SAS62N |
|---|---|
| Flight time | N/A |
| Altitude | 35000 |
| Route | LOMVI P600 INPAR |
| Aircraft | A319/M-SDE3FGHIRWY/LB1 |
Departure
| Time | 2026-05-04 20:50 |
|---|---|
| Airport | Tromsø Airport (ENTC) |
Arrival
| Time | N/A |
|---|---|
| Airport | Svalbard Airport, Longyear (ENSB) |
| Time | Latitude | Longitude | Altitude | Speed | Heading |
|---|---|---|---|---|---|
| 2026-05-04 20:26 | 69.68016 | 18.90941 | 34 ft | 0 kts | 283° |
| 2026-05-04 20:39 | 69.68016 | 18.90942 | 34 ft | 1 kts | 283° |
| 2026-05-04 20:39 | 69.68010 | 18.91009 | 31 ft | 4 kts | 283° |
| 2026-05-04 20:39 | 69.68004 | 18.91083 | 33 ft | 4 kts | 283° |
| 2026-05-04 20:40 | 69.67999 | 18.91144 | 31 ft | 4 kts | 282° |
| 2026-05-04 20:40 | 69.67997 | 18.91219 | 31 ft | 4 kts | 255° |
| 2026-05-04 20:40 | 69.68009 | 18.91279 | 32 ft | 4 kts | 209° |
| 2026-05-04 20:40 | 69.68021 | 18.91294 | 33 ft | 0 kts | 193° |
| 2026-05-04 20:42 | 69.68014 | 18.91290 | 34 ft | 4 kts | 193° |
| 2026-05-04 20:43 | 69.67954 | 18.91249 | 34 ft | 12 kts | 193° |
| 2026-05-04 20:43 | 69.67865 | 18.91189 | 34 ft | 15 kts | 193° |
| 2026-05-04 20:43 | 69.67762 | 18.91125 | 34 ft | 15 kts | 192° |
| 2026-05-04 20:43 | 69.67673 | 18.91068 | 34 ft | 5 kts | 192° |
| 2026-05-04 20:44 | 69.67643 | 18.91089 | 33 ft | 6 kts | 142° |
| 2026-05-04 20:44 | 69.67633 | 18.91148 | 35 ft | 0 kts | 105° |
| 2026-05-04 20:46 | 69.67632 | 18.91151 | 35 ft | 1 kts | 105° |
| 2026-05-04 20:46 | 69.67626 | 18.91231 | 37 ft | 7 kts | 101° |
| 2026-05-04 20:46 | 69.67580 | 18.91376 | 41 ft | 11 kts | 176° |
| 2026-05-04 20:47 | 69.67476 | 18.91317 | 38 ft | 20 kts | 192° |
| 2026-05-04 20:47 | 69.67376 | 18.91252 | 37 ft | 22 kts | 192° |
| 2026-05-04 20:47 | 69.67259 | 18.91218 | 34 ft | 7 kts | 218° |
| 2026-05-04 20:47 | 69.67268 | 18.91179 | 32 ft | 0 kts | 7° |
| 2026-05-04 20:48 | 69.67269 | 18.91179 | 32 ft | 0 kts | 10° |
| 2026-05-04 20:49 | 69.67316 | 18.91209 | 34 ft | 30 kts | 13° |
| 2026-05-04 20:49 | 69.67763 | 18.91509 | 40 ft | 101 kts | 13° |
| 2026-05-04 20:50 | 69.68655 | 18.92106 | 29 ft | 163 kts | 13° |
| 2026-05-04 20:50 | 69.69822 | 18.92876 | 434 ft | 175 kts | 13° |
| 2026-05-04 20:50 | 69.70986 | 18.93668 | 1191 ft | 174 kts | 13° |
| 2026-05-04 20:50 | 69.72167 | 18.94458 | 2007 ft | 172 kts | 13° |
| 2026-05-04 20:51 | 69.73330 | 18.95221 | 2778 ft | 172 kts | 14° |
| 2026-05-04 20:51 | 69.74517 | 18.96034 | 3318 ft | 175 kts | 15° |
| 2026-05-04 20:51 | 69.75702 | 18.96899 | 3845 ft | 176 kts | 15° |
| 2026-05-04 20:51 | 69.76892 | 18.97781 | 4325 ft | 180 kts | 15° |
| 2026-05-04 20:52 | 69.78194 | 18.98651 | 4481 ft | 205 kts | 13° |
| 2026-05-04 20:52 | 69.79702 | 18.98910 | 4722 ft | 229 kts | 2° |
| 2026-05-04 20:52 | 69.81383 | 18.98933 | 5044 ft | 252 kts | 2° |
| 2026-05-04 20:52 | 69.83172 | 18.98988 | 5683 ft | 262 kts | 2° |
| 2026-05-04 20:53 | 69.85014 | 18.99059 | 6439 ft | 265 kts | 2° |
| 2026-05-04 20:53 | 69.86872 | 18.99145 | 7184 ft | 268 kts | 4° |
| 2026-05-04 20:53 | 69.88698 | 18.99238 | 7955 ft | 270 kts | 4° |
| 2026-05-04 20:53 | 69.90638 | 18.99332 | 8706 ft | 274 kts | 3° |
| 2026-05-04 20:54 | 69.92476 | 18.99421 | 9421 ft | 277 kts | 3° |
| 2026-05-04 20:54 | 69.94447 | 18.99519 | 9798 ft | 293 kts | 3° |
| 2026-05-04 20:54 | 69.96566 | 18.99632 | 9946 ft | 316 kts | 4° |
| 2026-05-04 20:54 | 69.98782 | 18.99748 | 10327 ft | 327 kts | 2° |
| 2026-05-04 20:55 | 70.01076 | 18.99863 | 10937 ft | 332 kts | 2° |
| 2026-05-04 20:55 | 70.03399 | 18.99973 | 11579 ft | 336 kts | 2° |
| 2026-05-04 20:55 | 70.05751 | 19.00083 | 12219 ft | 339 kts | 2° |
| 2026-05-04 20:55 | 70.08123 | 18.99827 | 12833 ft | 344 kts | 353° |
| 2026-05-04 20:56 | 70.10468 | 18.98256 | 13437 ft | 348 kts | 342° |
| 2026-05-04 20:56 | 70.12780 | 18.96048 | 13986 ft | 352 kts | 342° |
| 2026-05-04 20:56 | 70.15130 | 18.93807 | 14528 ft | 355 kts | 342° |
| 2026-05-04 20:56 | 70.17493 | 18.91556 | 15086 ft | 359 kts | 342° |
| 2026-05-04 20:57 | 70.19877 | 18.89279 | 15633 ft | 362 kts | 342° |
| 2026-05-04 20:57 | 70.22280 | 18.86979 | 16212 ft | 365 kts | 342° |
| 2026-05-04 20:57 | 70.24707 | 18.84653 | 16731 ft | 369 kts | 342° |
| 2026-05-04 20:57 | 70.27160 | 18.82308 | 17274 ft | 372 kts | 342° |
| 2026-05-04 20:58 | 70.29645 | 18.79928 | 17782 ft | 377 kts | 342° |
| 2026-05-04 20:58 | 70.32152 | 18.77512 | 18296 ft | 380 kts | 342° |
| 2026-05-04 20:58 | 70.34680 | 18.75061 | 18766 ft | 383 kts | 341° |
| 2026-05-04 20:58 | 70.37216 | 18.72602 | 19293 ft | 385 kts | 341° |
| 2026-05-04 20:59 | 70.39788 | 18.70105 | 19738 ft | 390 kts | 341° |
| 2026-05-04 20:59 | 70.42375 | 18.67582 | 20226 ft | 393 kts | 341° |
| 2026-05-04 20:59 | 70.44986 | 18.65024 | 20683 ft | 396 kts | 341° |
| 2026-05-04 20:59 | 70.47582 | 18.62474 | 21196 ft | 399 kts | 341° |
| 2026-05-04 21:00 | 70.50227 | 18.59872 | 21642 ft | 401 kts | 341° |
| 2026-05-04 21:00 | 70.52897 | 18.57238 | 22056 ft | 405 kts | 340° |
| 2026-05-04 21:00 | 70.55589 | 18.54577 | 22472 ft | 409 kts | 340° |
| 2026-05-04 21:00 | 70.58308 | 18.51884 | 22844 ft | 413 kts | 340° |
| 2026-05-04 21:01 | 70.61051 | 18.49160 | 23267 ft | 415 kts | 340° |
| 2026-05-04 21:01 | 70.63795 | 18.46432 | 23645 ft | 417 kts | 341° |
| 2026-05-04 21:01 | 70.66536 | 18.43704 | 24190 ft | 414 kts | 340° |
| 2026-05-04 21:01 | 70.69281 | 18.40957 | 24526 ft | 416 kts | 341° |
| 2026-05-04 21:02 | 70.72033 | 18.38195 | 24854 ft | 419 kts | 340° |
| 2026-05-04 21:02 | 70.74811 | 18.35401 | 25184 ft | 421 kts | 341° |
| 2026-05-04 21:02 | 70.77597 | 18.32583 | 25516 ft | 423 kts | 341° |
| 2026-05-04 21:02 | 70.80405 | 18.29731 | 25888 ft | 425 kts | 341° |
| 2026-05-04 21:03 | 70.83217 | 18.26862 | 26218 ft | 428 kts | 341° |
| 2026-05-04 21:03 | 70.86010 | 18.24003 | 26523 ft | 430 kts | 341° |
| 2026-05-04 21:03 | 70.88892 | 18.21049 | 26800 ft | 434 kts | 341° |
| 2026-05-04 21:03 | 70.91715 | 18.18160 | 27127 ft | 435 kts | 341° |
| 2026-05-04 21:04 | 70.94603 | 18.15201 | 27429 ft | 437 kts | 341° |
| 2026-05-04 21:04 | 70.97493 | 18.12229 | 27741 ft | 439 kts | 341° |
| 2026-05-04 21:04 | 71.00399 | 18.09213 | 28012 ft | 442 kts | 341° |
| 2026-05-04 21:04 | 71.03324 | 18.06171 | 28280 ft | 444 kts | 342° |
| 2026-05-04 21:05 | 71.06262 | 18.03121 | 28570 ft | 446 kts | 342° |
| 2026-05-04 21:05 | 71.09208 | 18.00052 | 28829 ft | 448 kts | 342° |
| 2026-05-04 21:05 | 71.12167 | 17.96955 | 29117 ft | 450 kts | 342° |
| 2026-05-04 21:05 | 71.15133 | 17.93842 | 29329 ft | 452 kts | 342° |
| 2026-05-04 21:06 | 71.18122 | 17.90681 | 29560 ft | 455 kts | 342° |
| 2026-05-04 21:06 | 71.21121 | 17.87501 | 29790 ft | 456 kts | 342° |
| 2026-05-04 21:06 | 71.24131 | 17.84301 | 30068 ft | 456 kts | 342° |
| 2026-05-04 21:06 | 71.27125 | 17.81110 | 30366 ft | 455 kts | 342° |
| 2026-05-04 21:07 | 71.30118 | 17.77911 | 30607 ft | 456 kts | 342° |
| 2026-05-04 21:07 | 71.33117 | 17.74694 | 30843 ft | 456 kts | 342° |
| 2026-05-04 21:07 | 71.36121 | 17.71455 | 31062 ft | 457 kts | 341° |
| 2026-05-04 21:07 | 71.39124 | 17.68218 | 31330 ft | 457 kts | 341° |
| 2026-05-04 21:08 | 71.42133 | 17.64970 | 31591 ft | 456 kts | 341° |
| 2026-05-04 21:08 | 71.45127 | 17.61718 | 31829 ft | 457 kts | 342° |
| 2026-05-04 21:08 | 71.48133 | 17.58441 | 32081 ft | 457 kts | 341° |
| 2026-05-04 21:08 | 71.51135 | 17.55151 | 32296 ft | 457 kts | 341° |
| 2026-05-04 21:09 | 71.54102 | 17.51889 | 32562 ft | 457 kts | 341° |
| 2026-05-04 21:09 | 71.57143 | 17.48539 | 32815 ft | 457 kts | 341° |
| 2026-05-04 21:09 | 71.60101 | 17.45272 | 33076 ft | 456 kts | 342° |
| 2026-05-04 21:09 | 71.63101 | 17.41948 | 33324 ft | 456 kts | 341° |
| 2026-05-04 21:10 | 71.66096 | 17.38610 | 33559 ft | 457 kts | 342° |
| 2026-05-04 21:10 | 71.69091 | 17.35252 | 33776 ft | 456 kts | 341° |
| 2026-05-04 21:10 | 71.72081 | 17.31893 | 33962 ft | 456 kts | 341° |